Hovedside
METAR-TAF:

METAR-TAF

Lufthavner :

Malabo internasjonale lufthavn

Malabo, Ekvatorial-Guinea

breddegrad: 03-45-18N, lengdegrad: 08-42-31E, høyde over havet: 23 m

Gjeldene værobservasjon

Denne rapporten ble laget for 58 minutter siden, klokken 13:00 UTC
Vind 5 kt fra Nord-nordvest, skiftende mellom Vest-sørvest og Nord-nordøst
Temperatur 32°C
Luftfuktighet 67%
Trykk 1010 hPa
Sikt: 8000 m
Få skyer i en høyde av 1000 ft

METAR: FGSL 231300Z 33005KT 250V020 8000 FEW010 32/25 Q1010 NOSIG

Tid: 14:58 (13:58 UTC)

Varsel

Denne rapporten ble laget for 2 timer og 58 minutter siden, klokken 11:00 UTC
Varsel gyldig fra 23. klokken 12 UTC til 24. klokken 18 UTC
Vind 8 kt fra Vest
Sikt: 8000 m
Få skyer i en høyde av 1500 ft
Sannsynlighet 30% :
Midlertidig
fra 24. klokken 04 UTC til 24. klokken 09 UTC
Sikt: 3500 m
dis

TAF: FGSL 231100Z 2312/2418 26008KT 8000 FEW015 PROB30 TEMPO 2404/2409 3500 BR

Værobservasjoner og værvarsel for over 4000 flyplasser (METAR- og TAF-rapporter).

Tilgjengelige stasjoner er representert av de røde og gule prikkene på kartet.

Hold musepekeren over prikken for å se navnet på stasjonen.

Klikk så for å se værobservasjoner og -varsler.

For å forandre kartet kan du klikke på den grønne knappen med svart kryss for å zoome inn, på den grønne knappen med strek for å zoome ut, eller på de grønne pilene for å se tilstøtende kart.


METAR-TAF: